createdAt,value
2023-04-16T00:01:13.621Z,22.20
2023-04-16T00:03:41.723Z,20.80
2023-04-16T00:06:12.435Z,20.90
2023-04-16T00:08:41.199Z,21.10
2023-04-16T00:11:09.225Z,22.30
2023-04-16T00:13:37.158Z,22.80
2023-04-16T00:16:05.676Z,20.10
2023-04-16T00:18:33.520Z,18.60
2023-04-16T00:21:01.304Z,18.40
2023-04-16T00:23:29.168Z,19.30
2023-04-16T00:25:59.924Z,20.00
2023-04-16T00:28:28.053Z,19.00
2023-04-16T00:30:56.052Z,19.30
2023-04-16T00:33:24.051Z,21.20
2023-04-16T00:35:52.025Z,19.10
2023-04-16T00:38:20.026Z,19.00
2023-04-16T00:40:47.838Z,18.90
2023-04-16T00:43:26.383Z,18.00
2023-04-16T00:45:57.110Z,16.80
2023-04-16T00:48:27.865Z,17.40
2023-04-16T00:50:55.976Z,18.30
2023-04-16T00:53:24.441Z,18.80
2023-04-16T00:55:52.689Z,23.30
2023-04-16T00:58:20.612Z,27.20
2023-04-16T01:00:48.418Z,29.70
2023-04-16T01:03:16.976Z,30.30
2023-04-16T01:05:46.035Z,30.60
2023-04-16T01:08:22.189Z,27.60
2023-04-16T01:10:50.119Z,24.80
2023-04-16T01:13:18.026Z,22.20
2023-04-16T01:15:45.962Z,29.90
2023-04-16T01:18:18.060Z,31.40
2023-04-16T01:20:47.370Z,32.40
2023-04-16T01:23:16.471Z,31.50
2023-04-16T01:25:45.714Z,32.70
2023-04-16T01:28:13.996Z,37.80
2023-04-16T01:30:42.291Z,41.20
2023-04-16T01:33:14.492Z,39.30
2023-04-16T01:35:42.524Z,74.80
2023-04-16T01:38:10.575Z,35.00
2023-04-16T01:40:38.459Z,31.40
2023-04-16T01:43:06.419Z,36.70
2023-04-16T01:45:35.460Z,44.50
2023-04-16T01:48:04.336Z,51.20
2023-04-16T01:50:32.395Z,77.90
2023-04-16T01:53:02.002Z,47.50
2023-04-16T01:55:35.379Z,37.20
2023-04-16T01:58:03.508Z,34.50
2023-04-16T02:00:31.406Z,35.90
2023-04-16T02:02:59.524Z,38.10
2023-04-16T02:05:27.626Z,35.70
2023-04-16T02:07:55.465Z,37.90
2023-04-16T02:10:23.548Z,38.60
2023-04-16T02:12:51.506Z,36.70
2023-04-16T02:15:19.360Z,33.60
2023-04-16T02:17:48.779Z,36.10
2023-04-16T02:20:17.801Z,36.10
2023-04-16T02:22:45.847Z,37.80
2023-04-16T02:25:16.757Z,39.00
2023-04-16T02:27:46.483Z,39.10
2023-04-16T02:30:14.459Z,36.90
2023-04-16T02:32:42.392Z,38.20
2023-04-16T02:35:10.468Z,37.70
2023-04-16T02:37:40.825Z,37.70
2023-04-16T02:40:09.642Z,37.50
2023-04-16T02:42:37.563Z,38.30
2023-04-16T02:45:06.430Z,36.70
2023-04-16T02:47:34.392Z,37.60
2023-04-16T02:50:02.320Z,38.80
2023-04-16T02:52:30.189Z,37.70
2023-04-16T02:54:58.038Z,39.60
2023-04-16T02:57:26.113Z,34.90
2023-04-16T02:59:54.070Z,38.10
2023-04-16T03:02:21.971Z,35.10
2023-04-16T03:04:50.016Z,38.90
2023-04-16T03:07:18.505Z,36.20
2023-04-16T03:09:46.626Z,34.90
2023-04-16T03:12:14.514Z,34.30
2023-04-16T03:14:42.309Z,35.50
2023-04-16T03:17:10.068Z,35.60
2023-04-16T03:19:37.819Z,35.60
2023-04-16T03:22:05.816Z,33.00
2023-04-16T03:24:33.682Z,36.10
2023-04-16T03:27:02.480Z,33.50
2023-04-16T03:29:30.371Z,34.40
2023-04-16T03:31:58.515Z,34.20
2023-04-16T03:34:26.678Z,36.10
2023-04-16T03:36:54.464Z,37.00
2023-04-16T03:39:22.199Z,39.30
2023-04-16T03:41:50.087Z,38.00
2023-04-16T03:44:17.883Z,36.50
2023-04-16T03:46:45.733Z,37.60
2023-04-16T03:49:13.653Z,40.20
2023-04-16T03:51:41.599Z,39.10
2023-04-16T03:54:09.548Z,40.00
2023-04-16T03:56:37.361Z,39.00
2023-04-16T03:59:05.183Z,33.40
2023-04-16T04:01:33.011Z,31.80
2023-04-16T04:04:01.825Z,33.10
2023-04-16T04:06:29.742Z,32.10
2023-04-16T04:08:57.765Z,30.30
2023-04-16T04:11:26.269Z,28.40
2023-04-16T04:13:54.068Z,29.80
2023-04-16T04:16:21.895Z,29.30
2023-04-16T04:18:49.913Z,31.90
2023-04-16T04:21:18.401Z,29.10
2023-04-16T04:23:46.386Z,30.20
2023-04-16T04:26:14.304Z,29.60
2023-04-16T04:28:42.309Z,30.90
2023-04-16T04:31:10.437Z,30.90
2023-04-16T04:33:38.279Z,31.00
2023-04-16T04:36:07.402Z,29.90
2023-04-16T04:38:35.439Z,29.80
2023-04-16T04:41:03.327Z,30.40
2023-04-16T04:43:31.208Z,30.50
2023-04-16T04:45:59.118Z,28.60
2023-04-16T04:48:27.657Z,28.70
2023-04-16T04:50:55.554Z,28.20
2023-04-16T04:53:23.492Z,28.10
2023-04-16T04:55:54.247Z,28.50
2023-04-16T04:58:24.991Z,28.00
2023-04-16T05:00:52.891Z,27.80
2023-04-16T05:03:21.821Z,27.90
2023-04-16T05:05:49.963Z,26.90
2023-04-16T05:08:17.763Z,28.50
2023-04-16T05:10:46.213Z,26.10
2023-04-16T05:13:14.116Z,27.30
2023-04-16T05:15:41.887Z,25.20
2023-04-16T05:18:09.805Z,27.20
2023-04-16T05:20:37.950Z,26.50
2023-04-16T05:23:06.119Z,26.20
2023-04-16T05:25:33.958Z,26.60
2023-04-16T05:28:01.786Z,27.60
2023-04-16T05:30:29.704Z,27.10
2023-04-16T05:32:57.713Z,27.00
2023-04-16T05:35:25.907Z,27.00
2023-04-16T05:37:53.687Z,28.60
2023-04-16T05:40:21.610Z,31.80
2023-04-16T05:42:49.455Z,32.60
2023-04-16T05:45:17.313Z,32.40
2023-04-16T05:47:45.345Z,30.80
2023-04-16T05:50:13.233Z,29.20
2023-04-16T05:52:41.119Z,31.50
2023-04-16T05:55:09.725Z,38.90
2023-04-16T05:57:37.510Z,40.50
2023-04-16T06:00:06.405Z,35.50
2023-04-16T06:02:34.631Z,31.90
2023-04-16T06:05:02.641Z,29.40
2023-04-16T06:07:30.697Z,28.60
2023-04-16T06:09:58.570Z,28.30
2023-04-16T06:12:27.221Z,26.30
2023-04-16T06:14:55.004Z,24.20
2023-04-16T06:17:22.959Z,24.20
2023-04-16T06:19:50.743Z,25.60
2023-04-16T06:22:18.636Z,28.20
2023-04-16T06:24:46.595Z,25.10
2023-04-16T06:27:14.391Z,23.50
2023-04-16T06:29:42.237Z,24.90
2023-04-16T06:32:10.394Z,24.50
2023-04-16T06:34:39.072Z,23.90
2023-04-16T06:37:09.886Z,25.90
2023-04-16T06:39:38.445Z,25.30
2023-04-16T06:42:06.414Z,26.70
2023-04-16T06:44:35.634Z,26.90
2023-04-16T06:47:03.495Z,29.10
2023-04-16T06:49:31.588Z,28.00
2023-04-16T06:51:59.631Z,28.60
2023-04-16T06:54:27.850Z,28.60
2023-04-16T06:56:55.707Z,29.10
2023-04-16T06:59:23.559Z,29.40
2023-04-16T07:01:52.842Z,28.10
2023-04-16T07:04:21.268Z,28.30
2023-04-16T07:06:49.196Z,29.30
2023-04-16T07:09:18.036Z,30.60
2023-04-16T07:11:47.171Z,30.90
2023-04-16T07:14:15.143Z,30.50
2023-04-16T07:16:45.273Z,28.90
2023-04-16T07:19:24.266Z,28.00
2023-04-16T07:21:52.344Z,27.70
2023-04-16T07:24:20.305Z,27.90
2023-04-16T07:26:48.112Z,27.90
2023-04-16T07:29:15.948Z,27.00
2023-04-16T07:31:43.921Z,27.00
2023-04-16T07:34:15.445Z,27.80
2023-04-16T07:36:45.383Z,27.30
2023-04-16T07:39:13.309Z,27.10
2023-04-16T07:41:41.321Z,25.30
2023-04-16T07:44:09.479Z,23.10
2023-04-16T07:46:46.292Z,23.80
2023-04-16T07:49:15.584Z,24.30
2023-04-16T07:51:43.599Z,25.90
2023-04-16T07:54:11.685Z,24.10
2023-04-16T07:56:39.473Z,24.40
2023-04-16T07:59:21.123Z,24.30
2023-04-16T08:01:53.800Z,25.10
2023-04-16T08:04:25.716Z,24.10
2023-04-16T08:06:54.460Z,24.70
2023-04-16T08:09:28.661Z,24.60
2023-04-16T08:11:56.619Z,25.10
2023-04-16T08:14:24.397Z,25.30
2023-04-16T08:16:52.267Z,25.30
2023-04-16T08:19:20.260Z,24.00
2023-04-16T08:21:48.081Z,23.40
2023-04-16T08:24:15.942Z,23.70
2023-04-16T08:26:43.786Z,23.40
2023-04-16T08:29:11.964Z,24.50
2023-04-16T08:31:40.114Z,23.90
2023-04-16T08:34:08.081Z,24.10
2023-04-16T08:36:36.193Z,23.20
2023-04-16T08:39:04.133Z,22.30
2023-04-16T08:41:34.766Z,22.30
2023-04-16T08:44:08.647Z,21.20
2023-04-16T08:46:38.116Z,21.90
2023-04-16T08:49:08.164Z,21.60
2023-04-16T08:51:36.895Z,19.70
2023-04-16T08:54:09.413Z,18.80
2023-04-16T08:59:05.627Z,18.70
2023-04-16T09:01:33.913Z,18.40
2023-04-16T09:04:03.279Z,17.60
2023-04-16T09:06:33.138Z,18.20
2023-04-16T09:09:04.740Z,15.80
2023-04-16T09:11:33.036Z,15.10
2023-04-16T09:14:01.276Z,15.60
2023-04-16T09:16:34.225Z,14.90
2023-04-16T09:19:02.634Z,14.00
2023-04-16T09:21:30.647Z,13.60
2023-04-16T09:24:00.322Z,14.30
2023-04-16T09:26:28.335Z,13.20
2023-04-16T09:28:56.373Z,13.30
2023-04-16T09:31:27.276Z,14.70
2023-04-16T09:34:05.980Z,14.90
2023-04-16T09:36:35.353Z,15.60
2023-04-16T09:39:04.076Z,13.10
2023-04-16T09:41:36.114Z,12.50
2023-04-16T09:44:05.587Z,12.10
2023-04-16T09:46:41.832Z,9.00
2023-04-16T09:49:18.749Z,9.90
2023-04-16T09:51:51.111Z,8.30
2023-04-16T09:54:20.657Z,9.80
2023-04-16T09:56:48.990Z,9.30
2023-04-16T09:59:18.774Z,10.60
2023-04-16T10:01:50.711Z,9.70
2023-04-16T10:04:20.258Z,10.10
2023-04-16T10:07:07.075Z,8.50
2023-04-16T10:09:39.727Z,8.70
2023-04-16T10:12:08.416Z,6.70
2023-04-16T10:14:42.639Z,7.00
2023-04-16T10:17:13.421Z,7.40
2023-04-16T10:19:41.861Z,7.30
2023-04-16T10:35:02.108Z,9.00
2023-04-16T10:37:31.479Z,8.70
2023-04-16T10:40:00.244Z,8.60
2023-04-16T10:42:28.368Z,8.40
2023-04-16T10:45:05.756Z,7.90
2023-04-16T10:47:44.792Z,8.40
2023-04-16T10:50:17.076Z,8.20
2023-04-16T10:52:56.929Z,8.20
2023-04-16T10:55:34.065Z,8.20
2023-04-16T10:58:02.394Z,8.30
2023-04-16T11:00:30.498Z,7.90
2023-04-16T11:03:00.957Z,8.40
2023-04-16T11:05:48.809Z,8.20
2023-04-16T11:08:16.873Z,8.00
2023-04-16T11:10:45.162Z,8.10
2023-04-16T11:13:18.715Z,9.00
2023-04-16T11:15:48.770Z,8.70
2023-04-16T11:18:20.321Z,10.50
2023-04-16T11:20:48.629Z,9.30
2023-04-16T11:23:16.591Z,8.50
2023-04-16T11:25:45.246Z,9.40
2023-04-16T11:28:15.618Z,9.80
2023-04-16T11:30:46.940Z,9.40
2023-04-16T11:33:16.604Z,12.00
2023-04-16T11:38:10.577Z,9.60
2023-04-16T11:40:38.428Z,8.70
2023-04-16T11:43:16.780Z,9.20
2023-04-16T11:46:16.187Z,9.20
2023-04-16T11:48:53.747Z,10.10
2023-04-16T11:51:23.519Z,9.30
2023-04-16T11:53:53.636Z,9.70
2023-04-16T11:56:38.179Z,8.90
2023-04-16T11:59:20.841Z,8.70
2023-04-16T12:02:08.062Z,10.40
2023-04-16T12:04:36.512Z,9.30
2023-04-16T12:07:13.669Z,9.40
2023-04-16T12:09:43.821Z,9.60
2023-04-16T12:12:34.177Z,8.90
2023-04-16T12:15:06.810Z,9.70
2023-04-16T12:17:36.176Z,8.70
2023-04-16T12:20:09.913Z,8.40
2023-04-16T12:22:40.503Z,8.00
2023-04-16T12:25:12.726Z,8.20
2023-04-16T12:27:45.676Z,12.20
2023-04-16T12:30:16.067Z,10.70
2023-04-16T12:32:51.717Z,9.60
2023-04-16T12:35:34.014Z,9.20
2023-04-16T12:38:03.631Z,9.90
2023-04-16T12:40:31.559Z,9.10
2023-04-16T12:42:59.398Z,8.90
2023-04-16T12:45:27.752Z,8.70
2023-04-16T12:47:56.081Z,7.60
2023-04-16T12:50:24.081Z,8.90
2023-04-16T12:52:51.995Z,8.70
2023-04-16T12:55:19.982Z,8.70
2023-04-16T12:57:49.064Z,9.40
2023-04-16T13:00:17.348Z,10.60
2023-04-16T13:02:45.699Z,12.00
2023-04-16T13:05:16.734Z,15.70
2023-04-16T13:07:45.574Z,14.10
2023-04-16T13:10:17.859Z,11.60
2023-04-16T13:12:49.242Z,9.60
2023-04-16T13:15:17.571Z,10.10
2023-04-16T13:17:56.001Z,10.40
2023-04-16T13:20:24.576Z,10.20
2023-04-16T13:22:53.294Z,10.50
2023-04-16T13:25:21.295Z,14.00
2023-04-16T13:27:49.242Z,11.20
2023-04-16T13:30:26.325Z,10.50
2023-04-16T13:32:56.933Z,11.50
2023-04-16T13:35:35.270Z,12.20
2023-04-16T13:38:03.301Z,17.00
2023-04-16T13:40:36.809Z,15.90
2023-04-16T13:43:06.608Z,16.30
2023-04-16T13:45:41.836Z,15.40
2023-04-16T13:48:11.464Z,18.90
2023-04-16T13:50:39.510Z,13.80
2023-04-16T13:53:15.944Z,13.50
2023-04-16T13:55:46.899Z,17.10
2023-04-16T13:58:18.237Z,49.80
2023-04-16T14:00:46.917Z,44.30
2023-04-16T14:03:14.941Z,35.60
2023-04-16T14:05:51.185Z,24.40
2023-04-16T14:08:47.635Z,23.70
2023-04-16T14:11:16.098Z,23.40
2023-04-16T14:13:45.536Z,21.60
2023-04-16T14:16:16.575Z,19.40
2023-04-16T14:18:47.429Z,22.60
2023-04-16T14:21:15.797Z,21.80
2023-04-16T14:23:45.819Z,21.90
2023-04-16T14:26:15.450Z,24.70
2023-04-16T14:28:51.193Z,21.20
2023-04-16T14:31:22.646Z,19.00
2023-04-16T14:33:51.210Z,20.20
2023-04-16T14:36:24.014Z,20.50
2023-04-16T14:39:01.296Z,21.40
2023-04-16T14:41:32.242Z,24.30
2023-04-16T14:44:01.596Z,31.00
2023-04-16T14:46:33.051Z,36.80
2023-04-16T14:49:15.221Z,39.70
2023-04-16T14:51:47.463Z,40.00
2023-04-16T14:54:16.284Z,39.20
2023-04-16T14:56:44.100Z,36.40
2023-04-16T14:59:12.451Z,37.70
2023-04-16T15:01:46.796Z,39.10
2023-04-16T15:04:22.081Z,36.20
2023-04-16T15:06:50.941Z,31.40
2023-04-16T15:09:19.224Z,31.30
2023-04-16T15:11:47.282Z,27.90
2023-04-16T15:14:18.637Z,31.40
2023-04-16T15:16:48.805Z,37.80
2023-04-16T15:19:17.779Z,39.40
2023-04-16T15:21:48.630Z,37.40
2023-04-16T15:24:18.189Z,37.40
2023-04-16T15:26:59.478Z,25.10
2023-04-16T15:29:35.824Z,24.40
2023-04-16T15:32:08.654Z,30.40
2023-04-16T15:35:09.834Z,29.10
2023-04-16T15:37:45.060Z,28.20
2023-04-16T15:40:16.197Z,24.20
2023-04-16T15:42:44.931Z,23.70
2023-04-16T15:45:13.332Z,22.60
2023-04-16T15:47:43.376Z,22.00
2023-04-16T15:50:20.592Z,20.80
2023-04-16T15:52:50.432Z,19.80
2023-04-16T15:55:21.621Z,19.90
2023-04-16T15:57:50.151Z,22.50
2023-04-16T16:00:20.783Z,20.20
2023-04-16T16:02:51.687Z,20.90
2023-04-16T16:05:25.997Z,19.50
2023-04-16T16:07:54.202Z,20.00
2023-04-16T16:10:22.116Z,23.20
2023-04-16T16:12:50.063Z,23.50
2023-04-16T16:15:18.329Z,24.50
2023-04-16T16:17:50.405Z,26.30
2023-04-16T16:20:24.618Z,26.00
2023-04-16T16:22:56.880Z,28.00
2023-04-16T16:25:30.957Z,29.20
2023-04-16T16:27:59.566Z,31.90
2023-04-16T16:30:27.761Z,33.00
2023-04-16T16:32:55.843Z,32.50
2023-04-16T16:35:24.449Z,36.20
2023-04-16T16:37:57.454Z,31.80
2023-04-16T16:40:25.574Z,34.00
2023-04-16T16:42:54.150Z,33.90
2023-04-16T16:45:22.479Z,34.20
2023-04-16T16:47:55.025Z,33.20
2023-04-16T16:50:23.356Z,32.20
2023-04-16T16:52:53.020Z,21.60
2023-04-16T16:55:48.672Z,21.10
2023-04-16T16:58:17.172Z,19.50
2023-04-16T17:00:45.486Z,20.70
2023-04-16T17:03:13.680Z,20.70
2023-04-16T17:05:42.333Z,20.80
2023-04-16T17:08:10.555Z,19.90
2023-04-16T17:10:41.365Z,17.20
2023-04-16T17:13:09.423Z,16.10
2023-04-16T17:15:37.184Z,22.60
2023-04-16T17:18:05.542Z,26.10
2023-04-16T17:20:34.017Z,31.50
2023-04-16T17:23:07.410Z,31.90
2023-04-16T17:25:36.136Z,28.60
2023-04-16T17:28:05.749Z,26.00
2023-04-16T17:30:33.923Z,24.80
2023-04-16T17:33:04.349Z,24.90
2023-04-16T17:35:32.479Z,26.30
2023-04-16T17:38:01.329Z,26.50
2023-04-16T17:40:31.958Z,24.70
2023-04-16T17:43:00.098Z,23.30
2023-04-16T17:45:28.285Z,24.00
2023-04-16T17:47:56.293Z,24.70
2023-04-16T17:50:25.542Z,24.30
2023-04-16T17:52:53.347Z,25.20
2023-04-16T17:55:21.263Z,25.20
2023-04-16T17:57:49.118Z,21.80
2023-04-16T18:00:17.766Z,30.40
2023-04-16T18:02:45.843Z,36.80
2023-04-16T18:05:14.176Z,44.20
2023-04-16T18:07:43.676Z,47.40
2023-04-16T18:10:11.723Z,42.50
2023-04-16T18:12:39.536Z,33.60
2023-04-16T18:15:08.607Z,30.00
2023-04-16T18:17:36.576Z,29.20
2023-04-16T18:20:08.009Z,28.60
2023-04-16T18:23:28.372Z,30.10
2023-04-16T18:25:44.559Z,30.10
2023-04-16T18:28:30.125Z,28.60
2023-04-16T18:31:02.996Z,28.10
2023-04-16T18:33:44.262Z,34.00
2023-04-16T18:36:19.872Z,43.40
2023-04-16T18:39:00.083Z,37.20
2023-04-16T18:41:30.952Z,34.60
2023-04-16T18:43:59.204Z,34.40
2023-04-16T18:46:27.716Z,33.50
2023-04-16T18:48:55.971Z,33.50
2023-04-16T18:51:24.132Z,34.40
2023-04-16T18:57:00.921Z,32.50
2023-04-16T18:59:31.019Z,31.60
2023-04-16T19:01:59.176Z,30.10
2023-04-16T19:04:27.392Z,31.00
2023-04-16T19:06:55.884Z,31.80
2023-04-16T19:09:25.384Z,30.40
2023-04-16T19:11:53.303Z,28.10
2023-04-16T19:14:22.494Z,28.30
2023-04-16T19:16:50.489Z,26.80
2023-04-16T19:19:18.589Z,29.20
2023-04-16T19:21:50.047Z,27.80
2023-04-16T19:24:18.904Z,27.20
2023-04-16T19:26:46.772Z,27.60
2023-04-16T19:29:14.785Z,27.40
2023-04-16T19:31:42.716Z,29.10
2023-04-16T19:34:10.729Z,27.00
2023-04-16T19:36:38.596Z,27.80
2023-04-16T19:39:06.477Z,28.30
2023-04-16T19:41:34.424Z,26.10
2023-04-16T19:44:02.433Z,25.40
2023-04-16T19:46:30.512Z,26.10
2023-04-16T19:48:58.726Z,27.80
2023-04-16T19:51:27.326Z,28.70
2023-04-16T19:53:56.179Z,43.30
2023-04-16T19:56:27.200Z,47.60
2023-04-16T19:58:55.637Z,68.90
2023-04-16T20:01:25.200Z,48.40
2023-04-16T20:03:56.574Z,54.20
2023-04-16T20:06:28.583Z,33.80
2023-04-16T20:08:57.373Z,28.10
2023-04-16T20:11:25.674Z,26.60
2023-04-16T20:13:54.776Z,29.40
2023-04-16T20:16:23.539Z,28.90
2023-04-16T20:18:54.302Z,29.90
2023-04-16T20:21:22.241Z,29.90
2023-04-16T20:23:50.323Z,26.90
2023-04-16T20:26:18.592Z,25.70
2023-04-16T20:28:46.592Z,27.20
2023-04-16T20:31:14.618Z,27.80
2023-04-16T20:33:42.645Z,29.70
2023-04-16T20:36:11.981Z,27.30
2023-04-16T20:38:42.403Z,27.20
2023-04-16T20:41:10.609Z,28.40
2023-04-16T20:43:44.095Z,29.10
2023-04-16T20:46:14.808Z,32.20
2023-04-16T20:48:42.890Z,33.50
2023-04-16T20:51:10.898Z,31.20
2023-04-16T20:53:38.764Z,31.60
2023-04-16T20:56:07.292Z,28.90
2023-04-16T20:58:35.512Z,29.80
2023-04-16T21:01:04.775Z,31.00
2023-04-16T21:03:32.982Z,30.20
2023-04-16T21:06:01.903Z,29.60
2023-04-16T21:08:29.836Z,28.90
2023-04-16T21:10:57.852Z,30.30
2023-04-16T21:13:25.715Z,29.50
2023-04-16T21:15:53.778Z,30.80
2023-04-16T21:18:21.851Z,28.10
2023-04-16T21:20:49.918Z,27.90
2023-04-16T21:23:17.890Z,27.10
2023-04-16T21:25:45.970Z,27.60
2023-04-16T21:28:14.249Z,28.60
2023-04-16T21:30:43.475Z,28.40
2023-04-16T21:33:15.463Z,29.50
2023-04-16T21:35:44.997Z,28.70
2023-04-16T21:38:13.839Z,29.00
2023-04-16T21:40:41.813Z,31.80
2023-04-16T21:43:09.694Z,30.00
2023-04-16T21:45:37.939Z,28.80
2023-04-16T21:48:06.353Z,27.00
2023-04-16T21:50:34.380Z,27.50
2023-04-16T21:53:06.682Z,26.00
2023-04-16T21:55:34.963Z,27.20
2023-04-16T21:58:03.905Z,27.30
2023-04-16T22:00:31.981Z,25.90
2023-04-16T22:03:00.309Z,25.40
2023-04-16T22:05:28.992Z,26.10
2023-04-16T22:07:57.044Z,25.50
2023-04-16T22:10:24.989Z,26.10
2023-04-16T22:12:55.030Z,24.90
2023-04-16T22:15:22.909Z,24.60
2023-04-16T22:17:50.854Z,25.20
2023-04-16T22:20:18.848Z,24.80
2023-04-16T22:22:46.696Z,25.60
2023-04-16T22:25:14.836Z,25.20
2023-04-16T22:27:42.751Z,24.30
2023-04-16T22:30:11.278Z,24.30
2023-04-16T22:32:41.151Z,24.70
2023-04-16T22:35:09.602Z,25.30
2023-04-16T22:37:37.600Z,24.70
2023-04-16T22:40:10.834Z,24.70
2023-04-16T22:42:42.005Z,22.80
2023-04-16T22:45:10.714Z,22.50
2023-04-16T22:47:38.815Z,24.50
2023-04-16T22:50:08.045Z,25.30
2023-04-16T22:52:36.008Z,24.90
2023-04-16T22:55:05.208Z,24.30
2023-04-16T22:57:33.086Z,24.90
2023-04-16T23:00:01.061Z,26.10
2023-04-16T23:02:29.028Z,26.40
2023-04-16T23:04:57.077Z,26.20
2023-04-16T23:07:24.836Z,26.10
2023-04-16T23:09:52.813Z,25.50
2023-04-16T23:12:20.637Z,25.90
2023-04-16T23:14:48.566Z,25.30
2023-04-16T23:17:16.516Z,26.00
2023-04-16T23:19:44.381Z,26.80
2023-04-16T23:22:12.441Z,25.00
2023-04-16T23:24:40.538Z,25.60
2023-04-16T23:27:08.507Z,24.50
2023-04-16T23:29:36.441Z,24.20
2023-04-16T23:32:04.647Z,23.70
2023-04-16T23:34:32.580Z,24.80
2023-04-16T23:37:00.573Z,26.60
2023-04-16T23:39:28.501Z,25.80
2023-04-16T23:41:57.638Z,27.20
2023-04-16T23:44:25.537Z,27.20
2023-04-16T23:46:53.412Z,25.70
2023-04-16T23:49:21.416Z,26.30
2023-04-16T23:51:49.380Z,25.50
2023-04-16T23:54:17.336Z,24.60
2023-04-16T23:56:45.566Z,24.30
2023-04-16T23:59:13.937Z,25.50
